• Join FlightAware (Why Join?)
  • Login
  • US Flag 
08:01AM EDT


 

Airport Tracker/Info


-or-


 

Live Flight TrackerFlight Track Log ✈ ASQ4086 ✈ 25-Apr-2013 ✈ KHSV - KIAH

Flight Track Log - Related Links

Times and Time Zones

All times are in EDT time to prevent confusion due to time zone crossing. See the ASQ4086 flight status page for this flight to view local times or setup timezone preferences in your user account.

Time Position Orientation Groundspeed Altitude Reporting Facility
EDT Latitude Longitude Course Direction KTS MPH feet Rate Location/Type
07:17AM 34.4293 -87.0765 233° Southwest  Level FlightAware Approximate
07:17AM 34.6217 -86.9222 231° Southwest 243 280 8,900  Level Memphis Center
07:18AM 34.3798 -87.1553 231° Southwest  Level FlightAware Approximate
07:18AM 34.5756 -86.9897 230° Southwest 249 287 10,800  Level Memphis Center
07:19AM 34.3285 -87.2324 231° Southwest  Level FlightAware Approximate
07:19AM 34.5253 -87.0622 230° Southwest 271 312 12,600  Level Memphis Center
07:20AM 34.2771 -87.3093 231° Southwest  Level FlightAware Approximate
07:20AM 34.4731 -87.1325 228° Southwest 281 323 14,400  Level Memphis Center
07:21AM 34.2259 -87.3864 231° Southwest  Level FlightAware Approximate
07:21AM 34.4186 -87.2100 230° Southwest 292 336 16,100  Level Memphis Center
07:22AM 34.1746 -87.4633 231° Southwest  Level FlightAware Approximate
07:22AM 34.3664 -87.2875 231° Southwest 297 342 17,700  Level Memphis Center
07:23AM 34.3119 -87.3647 230° Southwest 297 342 18,900 1,320 Climbing Memphis Center
07:24AM 34.2533 -87.4447 228° Southwest 311 358 20,400 1,500 Climbing Memphis Center
07:25AM 34.1967 -87.5244 229° Southwest 317 365 22,000 1,380 Climbing Memphis Center
07:26AM 34.1442 -87.6017 231° Southwest 317 365 23,200 1,200 Climbing Memphis Center
07:27AM 34.0811 -87.6839 227° Southwest 323 372 24,400 1,020 Climbing Memphis Center
07:28AM 34.0206 -87.7708 230° Southwest 328 377 25,300 960 Climbing Memphis Center
07:29AM 33.9697 -87.8450 230° Southwest 329 379 26,400 1,260 Climbing Memphis Center
07:30AM 33.9089 -87.9294 229° Southwest 329 379 27,900 1,200 Climbing Memphis Center
07:31AM 33.8519 -88.0061 228° Southwest 324 373 28,900 1,020 Climbing Memphis Center
07:32AM 33.7931 -88.0900 230° Southwest 324 373 30,000 1,260 Climbing Memphis Center
07:33AM 33.7358 -88.1692 229° Southwest 324 373 31,500 1,500 Climbing Memphis Center
07:34AM 33.6808 -88.2453 229° Southwest 319 367 33,000 1,200 Climbing Memphis Center
07:35AM 33.6239 -88.3217 228° Southwest 314 361 34,000 480 Climbing Memphis Center
07:36AM 33.5667 -88.4028 230° Southwest 320 368 34,000  Level Memphis Center
07:37AM 33.4992 -88.5014 231° Southwest 332 382 34,000  Level Memphis Center
07:38AM 33.4361 -88.5997 232° Southwest 351 404 34,000  Level Memphis Center
07:39AM 33.3811 -88.7003 237° Southwest 363 418 34,000  Level Memphis Center
07:40AM 33.3217 -88.8008 235° Southwest 368 423 34,000  Level Memphis Center
07:41AM 33.2644 -88.8989 235° Southwest 373 429 34,000  Level Memphis Center
07:42AM 33.2050 -88.9992 235° Southwest 373 429 34,000  Level Memphis Center
07:43AM 33.1456 -89.0994 235° Southwest 373 429 34,000  Level Memphis Center
07:44AM 33.0861 -89.1994 235° Southwest 378 435 34,000  Level Memphis Center
07:45AM 33.0286 -89.2992 236° Southwest 378 435 34,000  Level Memphis Center
07:46AM 32.9689 -89.3989 234° Southwest 378 435 34,000  Level Memphis Center
07:47AM 32.9089 -89.4986 234° Southwest 378 435 34,000  Level Memphis Center
07:48AM 32.8511 -89.5956 235° Southwest 378 435 34,000  Level Memphis Center
07:49AM 32.7892 -89.6950 233° Southwest 378 435 34,000  Level Memphis Center
07:50AM 32.7292 -89.7967 235° Southwest 378 435 34,000  Level Memphis Center
07:51AM 32.6772 -89.8858 235° Southwest 378 435 34,000  Level Memphis Center
07:52AM 32.6169 -89.9847 234° Southwest 378 435 34,000  Level Memphis Center
07:53AM 32.5567 -90.0861 235° Southwest 378 435 34,000  Level Memphis Center
07:54AM 32.4986 -90.1850 235° Southwest 378 435 34,000  Level Memphis Center
07:55AM 32.4444 -90.2883 238° Southwest 378 435 34,000  Level Memphis Center
07:56AM 32.3900 -90.3917 238° Southwest 373 429 34,000  Level Memphis Center
07:57AM 32.3275 -90.5122 238° Southwest 373 429 34,000  Level Memphis Center
07:58AM 32.2731 -90.6153 238° Southwest 373 429 34,000  Level Memphis Center
07:59AM 32.2183 -90.7183 238° Southwest 379 436 34,000  Level Memphis Center
08:01AM 32.1119 -90.9236 239° Southwest 376 433 34,000  Level Houston Center
08:02AM 32.0561 -91.0272 238° Southwest 375 432 34,000  Level Houston Center
08:03AM 31.9994 -91.1322 238° Southwest 380 437 34,000  Level Houston Center
08:04AM 31.9442 -91.2383 238° Southwest 381 438 34,000  Level Houston Center
08:05AM 31.8869 -91.3419 237° Southwest 380 437 34,000  Level Houston Center
08:06AM 31.8297 -91.4475 237° Southwest 383 441 34,000  Level Houston Center
08:07AM 31.7747 -91.5522 238° Southwest 378 435 34,000  Level Houston Center
08:08AM 31.7053 -91.6789 237° Southwest 383 441 34,000  Level Houston Center
08:09AM 31.6492 -91.7850 238° Southwest 385 443 34,000  Level Houston Center
08:10AM 31.5917 -91.8894 237° Southwest 382 440 34,000  Level Houston Center
08:11AM 31.5342 -91.9967 238° Southwest 389 448 34,000  Level Houston Center
08:12AM 31.4764 -92.0953 236° Southwest 384 442 34,000  Level Houston Center
08:13AM 31.4178 -92.2017 237° Southwest 387 445 34,000  Level Houston Center
08:14AM 31.3617 -92.3064 238° Southwest 383 441 34,000  Level Houston Center
08:15AM 31.2919 -92.4342 237° Southwest 388 447 34,000  Level Houston Center
08:16AM 31.2336 -92.5397 237° Southwest 388 447 34,000  Level Houston Center
08:17AM 31.1758 -92.6461 238° Southwest 389 448 34,000  Level Houston Center
08:18AM 31.1172 -92.7494 236° Southwest 384 442 34,000 -300 Level Houston Center
08:19AM 31.0606 -92.8511 237° Southwest 376 433 33,400 -840 Descending Houston Center
08:20AM 31.0025 -92.9544 237° Southwest 382 440 32,300 -1,080 Descending Houston Center
08:21AM 30.9433 -93.0589 237° Southwest 387 445 31,300 -1,080 Descending Houston Center
08:22AM 30.8836 -93.1644 237° Southwest 391 450 30,200 -1,140 Descending Houston Center
08:23AM 30.8128 -93.2925 237° Southwest 394 453 29,000 -1,080 Descending Houston Center
08:24AM 30.7525 -93.3981 236° Southwest 395 455 28,000 -1,080 Descending Houston Center
08:25AM 30.6900 -93.5081 237° Southwest 409 471 26,900 -1,020 Descending Houston Center
08:26AM 30.6286 -93.6169 237° Southwest 408 470 25,900 -1,320 Descending Houston Center
08:27AM 30.5667 -93.7233 236° Southwest 404 465 24,300 -2,100 Descending Houston Center
08:29AM 30.4944 -93.8486 236° Southwest 396 456 21,600 -2,340 Descending Houston Center
08:30AM 30.4356 -93.9514 236° Southwest 386 444 19,500 -1,920 Descending Houston Center
08:31AM 30.3789 -94.0497 236° Southwest 373 429 17,700 -1,920 Descending Houston Center
08:32AM 30.3244 -94.1453 237° Southwest 359 413 15,600 -2,160 Descending Houston Center
08:32AM 30.2972 -94.1964 238° Southwest 352 405 14,500 -2,160 Descending Houston Center
08:33AM 30.2772 -94.2444 244° Southwest 354 407 13,400 -2,340 Descending Houston Center
08:33AM 30.2564 -94.2939 244° Southwest 351 404 12,400 -1,380 Descending Houston Center
08:34AM 30.2156 -94.3889 244° Southwest 316 364 11,600 -840 Descending Houston Center
08:35AM 30.1994 -94.4356 248° West 323 372 11,000 -1,080 Descending Houston Center
08:35AM 30.1797 -94.4758 240° Southwest 300 345 10,500 -1,080 Descending Houston Center
08:36AM 30.1600 -94.5256 245° Southwest 295 339 9,900 -1,140 Descending Houston Center
08:36AM 30.1439 -94.5603 242° Southwest 284 327 9,400 -1,140 Descending Houston Center
08:37AM 30.1250 -94.6053 244° Southwest 284 327 8,800 -960 Descending Houston Center
08:38AM 30.1039 -94.6861 253° West 268 308 7,800 -1,140 Descending Houston Center
08:38AM 30.0950 -94.7261 256° West 264 304 7,300 -1,260 Descending Houston Center
08:39AM 30.0794 -94.7839 253° West 265 305 6,500 -1,140 Descending Houston Center
08:39AM 30.0733 -94.8083 254° West 268 308 6,200 -1,020 Descending Houston Center
08:40AM 30.0603 -94.8683 256° West 270 311 5,500 -1,140 Descending Houston Center
08:40AM 30.0522 -94.8956 251° West 272 313 5,100 -1,020 Descending Houston Center
08:41AM 30.0400 -94.9503 256° West 269 310 4,500 -900 Descending Houston Center
08:41AM 30.0325 -94.9753 251° West 258 297 4,200 -540 Descending Houston Center
08:42AM 30.0200 -95.0278 255° West 257 296 4,000 -240 Descending Houston Center
08:42AM 30.0125 -95.0528 251° West 252 290 4,000  Level Houston Center
08:43AM 30.0000 -95.1058 255° West 255 293 4,000 -180 Level Houston Center
08:43AM 29.9936 -95.1442 259° West 249 287 3,800 -600 Descending Houston Center